sensor_id;sensor_type;location;lat;lon;timestamp;P1;durP1;ratioP1;P2;durP2;ratioP2
23470;SDS011;11908;50.806;4.424;2023-04-03T00:00:06;19.00;;;12.30;;
23470;SDS011;11908;50.806;4.424;2023-04-03T00:02:32;16.95;;;11.65;;
23470;SDS011;11908;50.806;4.424;2023-04-03T00:04:58;17.52;;;12.48;;
23470;SDS011;11908;50.806;4.424;2023-04-03T00:07:24;15.00;;;11.35;;
23470;SDS011;11908;50.806;4.424;2023-04-03T00:09:49;18.20;;;11.70;;
23470;SDS011;11908;50.806;4.424;2023-04-03T00:12:15;17.98;;;12.00;;
23470;SDS011;11908;50.806;4.424;2023-04-03T00:14:41;19.48;;;12.27;;
23470;SDS011;11908;50.806;4.424;2023-04-03T00:17:06;18.05;;;12.45;;
23470;SDS011;11908;50.806;4.424;2023-04-03T00:19:32;18.77;;;11.13;;
23470;SDS011;11908;50.806;4.424;2023-04-03T00:21:58;15.93;;;11.50;;
23470;SDS011;11908;50.806;4.424;2023-04-03T00:24:23;15.10;;;9.82;;
23470;SDS011;11908;50.806;4.424;2023-04-03T00:26:49;18.10;;;11.02;;
23470;SDS011;11908;50.806;4.424;2023-04-03T00:29:15;22.05;;;12.18;;
23470;SDS011;11908;50.806;4.424;2023-04-03T00:31:41;17.83;;;11.48;;
23470;SDS011;11908;50.806;4.424;2023-04-03T00:34:06;15.55;;;11.13;;
23470;SDS011;11908;50.806;4.424;2023-04-03T00:36:32;15.85;;;11.43;;
23470;SDS011;11908;50.806;4.424;2023-04-03T00:38:58;17.05;;;11.38;;
23470;SDS011;11908;50.806;4.424;2023-04-03T00:41:23;20.08;;;12.00;;
23470;SDS011;11908;50.806;4.424;2023-04-03T00:43:50;17.88;;;11.38;;
23470;SDS011;11908;50.806;4.424;2023-04-03T00:46:16;22.30;;;11.98;;
23470;SDS011;11908;50.806;4.424;2023-04-03T00:48:45;14.95;;;10.55;;
23470;SDS011;11908;50.806;4.424;2023-04-03T00:51:19;20.00;;;11.95;;
23470;SDS011;11908;50.806;4.424;2023-04-03T00:53:54;15.68;;;11.27;;
23470;SDS011;11908;50.806;4.424;2023-04-03T00:56:26;17.42;;;10.80;;
23470;SDS011;11908;50.806;4.424;2023-04-03T00:58:54;15.63;;;10.18;;
23470;SDS011;11908;50.806;4.424;2023-04-03T01:04:34;17.55;;;12.13;;
23470;SDS011;11908;50.806;4.424;2023-04-03T01:07:12;15.75;;;11.05;;
23470;SDS011;11908;50.806;4.424;2023-04-03T01:09:44;16.95;;;11.98;;
23470;SDS011;11908;50.806;4.424;2023-04-03T01:12:22;15.68;;;12.07;;
23470;SDS011;11908;50.806;4.424;2023-04-03T01:14:52;15.75;;;11.45;;
23470;SDS011;11908;50.806;4.424;2023-04-03T01:17:36;17.52;;;11.50;;
23470;SDS011;11908;50.806;4.424;2023-04-03T01:25:25;14.30;;;10.02;;
23470;SDS011;11908;50.806;4.424;2023-04-03T01:27:51;17.00;;;9.82;;
23470;SDS011;11908;50.806;4.424;2023-04-03T01:30:18;15.02;;;10.48;;
23470;SDS011;11908;50.806;4.424;2023-04-03T01:32:45;13.55;;;9.93;;
23470;SDS011;11908;50.806;4.424;2023-04-03T01:35:11;13.88;;;9.55;;
23470;SDS011;11908;50.806;4.424;2023-04-03T01:37:37;15.20;;;10.80;;
23470;SDS011;11908;50.806;4.424;2023-04-03T01:40:03;14.98;;;10.57;;
23470;SDS011;11908;50.806;4.424;2023-04-03T01:42:30;13.52;;;10.20;;
23470;SDS011;11908;50.806;4.424;2023-04-03T01:44:56;17.92;;;9.95;;
23470;SDS011;11908;50.806;4.424;2023-04-03T01:47:22;14.10;;;10.75;;
23470;SDS011;11908;50.806;4.424;2023-04-03T01:49:47;15.75;;;10.25;;
23470;SDS011;11908;50.806;4.424;2023-04-03T01:52:13;12.60;;;9.35;;
23470;SDS011;11908;50.806;4.424;2023-04-03T01:54:39;12.98;;;9.38;;
23470;SDS011;11908;50.806;4.424;2023-04-03T01:57:04;14.57;;;10.30;;
23470;SDS011;11908;50.806;4.424;2023-04-03T01:59:30;15.88;;;10.07;;
23470;SDS011;11908;50.806;4.424;2023-04-03T02:01:56;14.00;;;9.07;;
23470;SDS011;11908;50.806;4.424;2023-04-03T02:04:22;15.55;;;9.48;;
23470;SDS011;11908;50.806;4.424;2023-04-03T02:06:47;13.77;;;9.45;;
23470;SDS011;11908;50.806;4.424;2023-04-03T02:09:13;15.75;;;10.07;;
23470;SDS011;11908;50.806;4.424;2023-04-03T02:11:39;12.90;;;9.55;;
23470;SDS011;11908;50.806;4.424;2023-04-03T02:14:05;13.80;;;9.68;;
23470;SDS011;11908;50.806;4.424;2023-04-03T02:16:31;12.95;;;9.00;;
23470;SDS011;11908;50.806;4.424;2023-04-03T02:18:57;13.57;;;9.82;;
23470;SDS011;11908;50.806;4.424;2023-04-03T02:21:23;12.52;;;8.98;;
23470;SDS011;11908;50.806;4.424;2023-04-03T02:23:48;11.15;;;8.65;;
23470;SDS011;11908;50.806;4.424;2023-04-03T02:26:15;10.75;;;8.52;;
23470;SDS011;11908;50.806;4.424;2023-04-03T02:28:41;13.98;;;9.50;;
23470;SDS011;11908;50.806;4.424;2023-04-03T02:31:08;15.77;;;10.00;;
23470;SDS011;11908;50.806;4.424;2023-04-03T02:33:35;12.20;;;9.88;;
23470;SDS011;11908;50.806;4.424;2023-04-03T02:36:02;15.35;;;9.50;;
23470;SDS011;11908;50.806;4.424;2023-04-03T02:38:32;15.15;;;10.30;;
23470;SDS011;11908;50.806;4.424;2023-04-03T02:41:08;13.55;;;10.02;;
23470;SDS011;11908;50.806;4.424;2023-04-03T02:43:35;16.35;;;9.60;;
23470;SDS011;11908;50.806;4.424;2023-04-03T02:46:02;13.57;;;10.13;;
23470;SDS011;11908;50.806;4.424;2023-04-03T02:48:27;17.30;;;9.95;;
23470;SDS011;11908;50.806;4.424;2023-04-03T02:50:53;15.80;;;9.98;;
23470;SDS011;11908;50.806;4.424;2023-04-03T02:53:19;11.60;;;9.15;;
23470;SDS011;11908;50.806;4.424;2023-04-03T02:55:45;12.13;;;9.50;;
23470;SDS011;11908;50.806;4.424;2023-04-03T02:58:11;15.13;;;9.70;;
23470;SDS011;11908;50.806;4.424;2023-04-03T03:00:37;11.90;;;9.25;;
23470;SDS011;11908;50.806;4.424;2023-04-03T03:03:03;17.02;;;10.20;;
23470;SDS011;11908;50.806;4.424;2023-04-03T03:05:28;13.77;;;10.27;;
23470;SDS011;11908;50.806;4.424;2023-04-03T03:07:54;17.95;;;10.93;;
23470;SDS011;11908;50.806;4.424;2023-04-03T03:10:20;13.73;;;10.35;;
23470;SDS011;11908;50.806;4.424;2023-04-03T03:12:46;14.30;;;10.23;;
23470;SDS011;11908;50.806;4.424;2023-04-03T03:15:12;15.07;;;10.25;;
23470;SDS011;11908;50.806;4.424;2023-04-03T03:17:38;12.30;;;10.15;;
23470;SDS011;11908;50.806;4.424;2023-04-03T03:20:04;15.55;;;10.10;;
23470;SDS011;11908;50.806;4.424;2023-04-03T03:22:30;14.45;;;10.30;;
23470;SDS011;11908;50.806;4.424;2023-04-03T03:24:56;14.27;;;11.05;;
23470;SDS011;11908;50.806;4.424;2023-04-03T03:27:22;10.50;;;9.35;;
23470;SDS011;11908;50.806;4.424;2023-04-03T03:29:49;13.52;;;10.45;;
23470;SDS011;11908;50.806;4.424;2023-04-03T03:32:14;18.08;;;10.40;;
23470;SDS011;11908;50.806;4.424;2023-04-03T03:34:40;15.85;;;11.02;;
23470;SDS011;11908;50.806;4.424;2023-04-03T03:37:06;14.90;;;10.55;;
23470;SDS011;11908;50.806;4.424;2023-04-03T03:39:32;12.07;;;9.75;;
23470;SDS011;11908;50.806;4.424;2023-04-03T03:41:57;13.68;;;10.25;;
23470;SDS011;11908;50.806;4.424;2023-04-03T03:44:23;13.25;;;10.32;;
23470;SDS011;11908;50.806;4.424;2023-04-03T03:46:49;14.00;;;10.77;;
23470;SDS011;11908;50.806;4.424;2023-04-03T03:49:14;15.75;;;10.02;;
23470;SDS011;11908;50.806;4.424;2023-04-03T03:51:40;14.20;;;9.82;;
23470;SDS011;11908;50.806;4.424;2023-04-03T03:54:06;11.77;;;9.70;;
23470;SDS011;11908;50.806;4.424;2023-04-03T03:56:34;16.95;;;9.68;;
23470;SDS011;11908;50.806;4.424;2023-04-03T03:58:59;11.77;;;10.20;;
23470;SDS011;11908;50.806;4.424;2023-04-03T04:01:25;11.68;;;9.40;;
23470;SDS011;11908;50.806;4.424;2023-04-03T04:03:51;12.13;;;9.52;;
23470;SDS011;11908;50.806;4.424;2023-04-03T04:06:18;15.13;;;10.10;;
23470;SDS011;11908;50.806;4.424;2023-04-03T04:08:44;16.55;;;10.23;;
23470;SDS011;11908;50.806;4.424;2023-04-03T04:11:10;12.68;;;9.90;;
23470;SDS011;11908;50.806;4.424;2023-04-03T04:13:36;12.10;;;9.98;;
23470;SDS011;11908;50.806;4.424;2023-04-03T04:16:02;15.45;;;10.00;;
23470;SDS011;11908;50.806;4.424;2023-04-03T04:18:27;16.45;;;10.60;;
23470;SDS011;11908;50.806;4.424;2023-04-03T04:20:53;12.80;;;9.05;;
23470;SDS011;11908;50.806;4.424;2023-04-03T04:23:19;13.52;;;9.55;;
23470;SDS011;11908;50.806;4.424;2023-04-03T04:25:45;14.18;;;9.95;;
23470;SDS011;11908;50.806;4.424;2023-04-03T04:28:12;14.23;;;9.35;;
23470;SDS011;11908;50.806;4.424;2023-04-03T04:30:37;13.55;;;9.93;;
23470;SDS011;11908;50.806;4.424;2023-04-03T04:33:03;15.00;;;9.98;;
23470;SDS011;11908;50.806;4.424;2023-04-03T04:35:29;14.27;;;10.63;;
23470;SDS011;11908;50.806;4.424;2023-04-03T04:37:55;12.27;;;9.23;;
23470;SDS011;11908;50.806;4.424;2023-04-03T04:40:21;14.27;;;10.15;;
23470;SDS011;11908;50.806;4.424;2023-04-03T04:42:47;17.30;;;10.10;;
23470;SDS011;11908;50.806;4.424;2023-04-03T04:45:12;12.52;;;9.57;;
23470;SDS011;11908;50.806;4.424;2023-04-03T04:47:39;15.90;;;10.52;;
23470;SDS011;11908;50.806;4.424;2023-04-03T04:50:06;16.35;;;11.43;;
23470;SDS011;11908;50.806;4.424;2023-04-03T04:52:32;14.60;;;10.45;;
23470;SDS011;11908;50.806;4.424;2023-04-03T04:54:58;14.32;;;11.25;;
23470;SDS011;11908;50.806;4.424;2023-04-03T04:57:24;19.38;;;11.30;;
23470;SDS011;11908;50.806;4.424;2023-04-03T04:59:51;12.52;;;10.65;;
23470;SDS011;11908;50.806;4.424;2023-04-03T05:02:16;15.35;;;11.07;;
23470;SDS011;11908;50.806;4.424;2023-04-03T05:04:42;17.23;;;10.35;;
23470;SDS011;11908;50.806;4.424;2023-04-03T05:07:08;21.33;;;10.57;;
23470;SDS011;11908;50.806;4.424;2023-04-03T05:09:34;16.15;;;11.27;;
23470;SDS011;11908;50.806;4.424;2023-04-03T05:12:00;14.55;;;10.98;;
23470;SDS011;11908;50.806;4.424;2023-04-03T05:14:26;19.75;;;11.70;;
23470;SDS011;11908;50.806;4.424;2023-04-03T05:16:52;15.70;;;10.15;;
23470;SDS011;11908;50.806;4.424;2023-04-03T05:19:19;16.02;;;11.35;;
23470;SDS011;11908;50.806;4.424;2023-04-03T05:21:45;13.07;;;10.90;;
23470;SDS011;11908;50.806;4.424;2023-04-03T05:24:11;13.80;;;10.35;;
23470;SDS011;11908;50.806;4.424;2023-04-03T05:26:37;15.52;;;10.77;;
23470;SDS011;11908;50.806;4.424;2023-04-03T05:29:03;17.63;;;10.75;;
23470;SDS011;11908;50.806;4.424;2023-04-03T05:31:29;16.08;;;11.27;;
23470;SDS011;11908;50.806;4.424;2023-04-03T05:33:55;15.27;;;12.73;;
23470;SDS011;11908;50.806;4.424;2023-04-03T05:36:21;15.70;;;11.40;;
23470;SDS011;11908;50.806;4.424;2023-04-03T05:38:47;17.38;;;12.10;;
23470;SDS011;11908;50.806;4.424;2023-04-03T05:41:13;20.52;;;12.93;;
23470;SDS011;11908;50.806;4.424;2023-04-03T05:43:40;21.90;;;14.57;;
23470;SDS011;11908;50.806;4.424;2023-04-03T05:46:12;18.88;;;12.73;;
23470;SDS011;11908;50.806;4.424;2023-04-03T05:48:43;20.58;;;13.70;;
23470;SDS011;11908;50.806;4.424;2023-04-03T05:51:13;18.05;;;11.38;;
23470;SDS011;11908;50.806;4.424;2023-04-03T05:53:44;13.70;;;9.10;;
23470;SDS011;11908;50.806;4.424;2023-04-03T05:56:11;14.18;;;8.82;;
23470;SDS011;11908;50.806;4.424;2023-04-03T05:58:37;15.05;;;8.23;;
23470;SDS011;11908;50.806;4.424;2023-04-03T06:01:03;13.10;;;8.05;;
23470;SDS011;11908;50.806;4.424;2023-04-03T06:03:30;17.80;;;7.80;;
23470;SDS011;11908;50.806;4.424;2023-04-03T06:05:56;11.40;;;7.07;;
23470;SDS011;11908;50.806;4.424;2023-04-03T06:08:22;15.93;;;7.57;;
23470;SDS011;11908;50.806;4.424;2023-04-03T06:10:48;11.57;;;6.47;;
23470;SDS011;11908;50.806;4.424;2023-04-03T06:13:15;10.80;;;6.60;;
23470;SDS011;11908;50.806;4.424;2023-04-03T06:15:41;13.65;;;6.97;;
23470;SDS011;11908;50.806;4.424;2023-04-03T06:18:07;13.23;;;6.93;;
23470;SDS011;11908;50.806;4.424;2023-04-03T06:20:33;11.95;;;7.00;;
23470;SDS011;11908;50.806;4.424;2023-04-03T06:22:59;10.38;;;6.70;;
23470;SDS011;11908;50.806;4.424;2023-04-03T06:25:25;13.25;;;7.20;;
23470;SDS011;11908;50.806;4.424;2023-04-03T06:27:51;10.57;;;7.18;;
23470;SDS011;11908;50.806;4.424;2023-04-03T06:30:17;10.05;;;6.97;;
23470;SDS011;11908;50.806;4.424;2023-04-03T06:32:43;11.20;;;6.63;;
23470;SDS011;11908;50.806;4.424;2023-04-03T06:35:09;12.98;;;7.15;;
23470;SDS011;11908;50.806;4.424;2023-04-03T06:37:35;12.75;;;7.50;;
23470;SDS011;11908;50.806;4.424;2023-04-03T06:40:00;10.27;;;7.53;;
23470;SDS011;11908;50.806;4.424;2023-04-03T06:42:27;10.10;;;7.57;;
23470;SDS011;11908;50.806;4.424;2023-04-03T06:44:53;13.60;;;8.15;;
23470;SDS011;11908;50.806;4.424;2023-04-03T06:47:19;11.35;;;7.65;;
23470;SDS011;11908;50.806;4.424;2023-04-03T06:49:45;11.68;;;8.70;;
23470;SDS011;11908;50.806;4.424;2023-04-03T06:52:10;12.13;;;8.25;;
23470;SDS011;11908;50.806;4.424;2023-04-03T06:54:39;18.25;;;9.90;;
23470;SDS011;11908;50.806;4.424;2023-04-03T06:57:06;14.45;;;8.95;;
23470;SDS011;11908;50.806;4.424;2023-04-03T06:59:32;14.60;;;9.07;;
23470;SDS011;11908;50.806;4.424;2023-04-03T07:01:58;13.48;;;8.57;;
23470;SDS011;11908;50.806;4.424;2023-04-03T07:04:24;11.27;;;9.20;;
23470;SDS011;11908;50.806;4.424;2023-04-03T07:06:50;14.48;;;9.00;;
23470;SDS011;11908;50.806;4.424;2023-04-03T07:09:17;14.05;;;9.23;;
23470;SDS011;11908;50.806;4.424;2023-04-03T07:11:43;17.17;;;9.07;;
23470;SDS011;11908;50.806;4.424;2023-04-03T07:14:09;12.57;;;9.82;;
23470;SDS011;11908;50.806;4.424;2023-04-03T07:16:35;12.07;;;10.00;;
23470;SDS011;11908;50.806;4.424;2023-04-03T07:19:01;13.20;;;9.68;;
23470;SDS011;11908;50.806;4.424;2023-04-03T07:21:27;14.35;;;9.55;;
23470;SDS011;11908;50.806;4.424;2023-04-03T07:23:54;11.75;;;9.63;;
23470;SDS011;11908;50.806;4.424;2023-04-03T07:26:20;13.43;;;9.55;;
23470;SDS011;11908;50.806;4.424;2023-04-03T07:28:47;14.73;;;9.73;;
23470;SDS011;11908;50.806;4.424;2023-04-03T07:31:13;13.65;;;9.45;;
23470;SDS011;11908;50.806;4.424;2023-04-03T07:33:41;13.10;;;8.35;;
23470;SDS011;11908;50.806;4.424;2023-04-03T07:36:07;12.68;;;9.35;;
23470;SDS011;11908;50.806;4.424;2023-04-03T07:38:39;14.95;;;8.23;;
23470;SDS011;11908;50.806;4.424;2023-04-03T07:41:04;13.88;;;8.50;;
23470;SDS011;11908;50.806;4.424;2023-04-03T07:43:31;9.48;;;7.07;;
23470;SDS011;11908;50.806;4.424;2023-04-03T07:45:56;10.80;;;7.80;;
23470;SDS011;11908;50.806;4.424;2023-04-03T07:48:23;10.77;;;6.93;;
23470;SDS011;11908;50.806;4.424;2023-04-03T07:50:50;10.18;;;7.60;;
23470;SDS011;11908;50.806;4.424;2023-04-03T07:53:17;8.95;;;6.68;;
23470;SDS011;11908;50.806;4.424;2023-04-03T07:55:45;8.48;;;6.50;;
23470;SDS011;11908;50.806;4.424;2023-04-03T07:58:13;9.05;;;5.88;;
23470;SDS011;11908;50.806;4.424;2023-04-03T08:00:43;8.45;;;6.43;;
23470;SDS011;11908;50.806;4.424;2023-04-03T08:03:10;7.43;;;5.65;;
23470;SDS011;11908;50.806;4.424;2023-04-03T08:05:40;8.25;;;5.82;;
23470;SDS011;11908;50.806;4.424;2023-04-03T08:08:07;6.18;;;4.85;;
23470;SDS011;11908;50.806;4.424;2023-04-03T08:10:33;10.57;;;5.75;;
23470;SDS011;11908;50.806;4.424;2023-04-03T08:12:59;9.23;;;5.00;;
23470;SDS011;11908;50.806;4.424;2023-04-03T08:15:26;9.43;;;5.85;;
23470;SDS011;11908;50.806;4.424;2023-04-03T08:17:52;6.20;;;4.93;;
23470;SDS011;11908;50.806;4.424;2023-04-03T08:20:18;7.65;;;4.85;;
23470;SDS011;11908;50.806;4.424;2023-04-03T08:22:44;7.43;;;4.60;;
23470;SDS011;11908;50.806;4.424;2023-04-03T08:25:10;7.05;;;4.22;;
23470;SDS011;11908;50.806;4.424;2023-04-03T08:27:35;5.72;;;4.90;;
23470;SDS011;11908;50.806;4.424;2023-04-03T08:30:02;7.55;;;4.65;;
23470;SDS011;11908;50.806;4.424;2023-04-03T08:32:29;6.07;;;4.05;;
23470;SDS011;11908;50.806;4.424;2023-04-03T08:34:55;5.53;;;4.07;;
23470;SDS011;11908;50.806;4.424;2023-04-03T08:37:20;7.30;;;4.20;;
23470;SDS011;11908;50.806;4.424;2023-04-03T08:39:46;7.68;;;4.78;;
23470;SDS011;11908;50.806;4.424;2023-04-03T08:47:53;7.85;;;3.90;;
23470;SDS011;11908;50.806;4.424;2023-04-03T08:50:45;5.93;;;4.40;;
23470;SDS011;11908;50.806;4.424;2023-04-03T08:53:18;9.25;;;4.53;;
23470;SDS011;11908;50.806;4.424;2023-04-03T08:55:47;7.07;;;4.00;;
23470;SDS011;11908;50.806;4.424;2023-04-03T09:03:17;6.95;;;4.00;;
23470;SDS011;11908;50.806;4.424;2023-04-03T09:05:58;7.25;;;3.70;;
23470;SDS011;11908;50.806;4.424;2023-04-03T09:08:31;5.30;;;3.47;;
23470;SDS011;11908;50.806;4.424;2023-04-03T09:16:26;9.48;;;3.60;;
23470;SDS011;11908;50.806;4.424;2023-04-03T09:21:49;5.93;;;3.40;;
23470;SDS011;11908;50.806;4.424;2023-04-03T09:24:15;6.45;;;2.85;;
23470;SDS011;11908;50.806;4.424;2023-04-03T09:29:19;6.25;;;2.40;;
23470;SDS011;11908;50.806;4.424;2023-04-03T09:31:48;7.05;;;2.78;;
23470;SDS011;11908;50.806;4.424;2023-04-03T09:36:48;7.22;;;2.97;;
23470;SDS011;11908;50.806;4.424;2023-04-03T09:39:24;5.47;;;2.47;;
23470;SDS011;11908;50.806;4.424;2023-04-03T09:44:36;6.68;;;2.70;;
23470;SDS011;11908;50.806;4.424;2023-04-03T09:47:19;6.50;;;2.42;;
23470;SDS011;11908;50.806;4.424;2023-04-03T09:49:48;4.88;;;2.20;;
23470;SDS011;11908;50.806;4.424;2023-04-03T09:52:23;5.63;;;2.83;;
23470;SDS011;11908;50.806;4.424;2023-04-03T09:54:49;5.25;;;2.40;;
23470;SDS011;11908;50.806;4.424;2023-04-03T09:57:15;5.00;;;2.55;;
23470;SDS011;11908;50.806;4.424;2023-04-03T09:59:46;5.63;;;2.97;;
23470;SDS011;11908;50.806;4.424;2023-04-03T10:02:30;6.07;;;3.22;;
23470;SDS011;11908;50.806;4.424;2023-04-03T10:04:57;4.40;;;2.10;;
23470;SDS011;11908;50.806;4.424;2023-04-03T10:07:28;4.57;;;2.28;;
23470;SDS011;11908;50.806;4.424;2023-04-03T10:12:39;5.88;;;2.50;;
23470;SDS011;11908;50.806;4.424;2023-04-03T10:15:12;4.32;;;2.28;;
23470;SDS011;11908;50.806;4.424;2023-04-03T10:34:27;5.28;;;2.30;;
23470;SDS011;11908;50.806;4.424;2023-04-03T10:37:06;7.93;;;2.53;;
23470;SDS011;11908;50.806;4.424;2023-04-03T10:42:34;5.78;;;2.60;;
23470;SDS011;11908;50.806;4.424;2023-04-03T10:45:28;4.53;;;2.22;;
23470;SDS011;11908;50.806;4.424;2023-04-03T10:48:18;5.60;;;2.55;;
23470;SDS011;11908;50.806;4.424;2023-04-03T10:56:53;5.25;;;1.88;;
23470;SDS011;11908;50.806;4.424;2023-04-03T10:59:35;4.72;;;2.10;;
23470;SDS011;11908;50.806;4.424;2023-04-03T11:02:06;4.25;;;2.30;;
23470;SDS011;11908;50.806;4.424;2023-04-03T11:04:48;7.38;;;2.13;;
23470;SDS011;11908;50.806;4.424;2023-04-03T11:07:20;6.10;;;1.90;;
23470;SDS011;11908;50.806;4.424;2023-04-03T11:09:51;4.55;;;2.08;;
23470;SDS011;11908;50.806;4.424;2023-04-03T11:12:28;4.43;;;2.10;;
23470;SDS011;11908;50.806;4.424;2023-04-03T11:15:03;3.38;;;1.90;;
23470;SDS011;11908;50.806;4.424;2023-04-03T11:17:33;4.28;;;2.28;;
23470;SDS011;11908;50.806;4.424;2023-04-03T11:20:18;6.57;;;1.98;;
23470;SDS011;11908;50.806;4.424;2023-04-03T11:25:46;5.22;;;2.28;;
23470;SDS011;11908;50.806;4.424;2023-04-03T11:28:17;5.25;;;1.73;;
23470;SDS011;11908;50.806;4.424;2023-04-03T11:33:49;3.70;;;1.73;;
23470;SDS011;11908;50.806;4.424;2023-04-03T11:36:54;3.83;;;1.75;;
23470;SDS011;11908;50.806;4.424;2023-04-03T11:39:34;4.47;;;2.00;;
23470;SDS011;11908;50.806;4.424;2023-04-03T11:47:49;4.10;;;1.77;;
23470;SDS011;11908;50.806;4.424;2023-04-03T12:05:55;7.28;;;1.63;;
23470;SDS011;11908;50.806;4.424;2023-04-03T12:08:38;3.33;;;1.60;;
23470;SDS011;11908;50.806;4.424;2023-04-03T12:14:24;4.57;;;1.60;;
23470;SDS011;11908;50.806;4.424;2023-04-03T12:29:38;2.88;;;1.35;;
23470;SDS011;11908;50.806;4.424;2023-04-03T12:34:58;7.50;;;1.98;;
23470;SDS011;11908;50.806;4.424;2023-04-03T12:48:22;7.03;;;1.85;;
23470;SDS011;11908;50.806;4.424;2023-04-03T12:50:51;3.78;;;1.65;;
23470;SDS011;11908;50.806;4.424;2023-04-03T12:58:52;2.70;;;1.50;;
23470;SDS011;11908;50.806;4.424;2023-04-03T13:01:23;5.65;;;1.55;;
23470;SDS011;11908;50.806;4.424;2023-04-03T13:03:54;4.45;;;2.03;;
23470;SDS011;11908;50.806;4.424;2023-04-03T13:06:32;6.72;;;1.80;;
23470;SDS011;11908;50.806;4.424;2023-04-03T13:09:04;5.78;;;2.03;;
23470;SDS011;11908;50.806;4.424;2023-04-03T13:11:32;7.32;;;1.58;;
23470;SDS011;11908;50.806;4.424;2023-04-03T13:14:05;5.45;;;1.50;;
23470;SDS011;11908;50.806;4.424;2023-04-03T13:16:40;8.05;;;1.60;;
23470;SDS011;11908;50.806;4.424;2023-04-03T13:19:06;1.77;;;1.15;;
23470;SDS011;11908;50.806;4.424;2023-04-03T13:21:42;2.97;;;1.25;;
23470;SDS011;11908;50.806;4.424;2023-04-03T13:24:09;3.08;;;1.50;;
23470;SDS011;11908;50.806;4.424;2023-04-03T13:26:35;2.30;;;1.30;;
23470;SDS011;11908;50.806;4.424;2023-04-03T13:29:04;3.33;;;1.45;;
23470;SDS011;11908;50.806;4.424;2023-04-03T13:31:33;6.07;;;1.30;;
23470;SDS011;11908;50.806;4.424;2023-04-03T13:36:37;1.63;;;1.05;;
23470;SDS011;11908;50.806;4.424;2023-04-03T13:39:07;3.25;;;1.73;;
23470;SDS011;11908;50.806;4.424;2023-04-03T13:41:57;3.85;;;1.52;;
23470;SDS011;11908;50.806;4.424;2023-04-03T13:44:39;3.63;;;1.60;;
23470;SDS011;11908;50.806;4.424;2023-04-03T13:47:19;2.95;;;1.60;;
23470;SDS011;11908;50.806;4.424;2023-04-03T13:50:11;2.92;;;1.30;;
23470;SDS011;11908;50.806;4.424;2023-04-03T13:58:53;4.88;;;1.65;;
23470;SDS011;11908;50.806;4.424;2023-04-03T14:01:52;5.10;;;1.85;;
23470;SDS011;11908;50.806;4.424;2023-04-03T14:06:50;7.50;;;1.88;;
23470;SDS011;11908;50.806;4.424;2023-04-03T14:09:17;2.85;;;1.60;;
23470;SDS011;11908;50.806;4.424;2023-04-03T14:11:44;5.13;;;2.20;;
23470;SDS011;11908;50.806;4.424;2023-04-03T14:14:13;5.65;;;1.75;;
23470;SDS011;11908;50.806;4.424;2023-04-03T14:16:42;3.13;;;1.88;;
23470;SDS011;11908;50.806;4.424;2023-04-03T14:19:26;3.03;;;1.67;;
23470;SDS011;11908;50.806;4.424;2023-04-03T14:21:55;4.75;;;1.70;;
23470;SDS011;11908;50.806;4.424;2023-04-03T14:24:21;4.20;;;1.92;;
23470;SDS011;11908;50.806;4.424;2023-04-03T14:26:52;2.53;;;1.10;;
23470;SDS011;11908;50.806;4.424;2023-04-03T14:29:18;4.35;;;1.42;;
23470;SDS011;11908;50.806;4.424;2023-04-03T14:31:46;3.90;;;1.55;;
23470;SDS011;11908;50.806;4.424;2023-04-03T14:34:13;3.17;;;1.40;;
23470;SDS011;11908;50.806;4.424;2023-04-03T14:36:39;3.63;;;1.55;;
23470;SDS011;11908;50.806;4.424;2023-04-03T14:39:07;3.88;;;1.52;;
23470;SDS011;11908;50.806;4.424;2023-04-03T14:41:35;3.38;;;1.33;;
23470;SDS011;11908;50.806;4.424;2023-04-03T14:44:01;2.90;;;1.50;;
23470;SDS011;11908;50.806;4.424;2023-04-03T14:46:37;3.88;;;1.58;;
23470;SDS011;11908;50.806;4.424;2023-04-03T14:49:15;3.08;;;1.40;;
23470;SDS011;11908;50.806;4.424;2023-04-03T14:51:46;5.20;;;1.35;;
23470;SDS011;11908;50.806;4.424;2023-04-03T14:54:16;4.75;;;1.33;;
23470;SDS011;11908;50.806;4.424;2023-04-03T14:56:44;2.45;;;1.40;;
23470;SDS011;11908;50.806;4.424;2023-04-03T14:59:13;2.22;;;1.40;;
23470;SDS011;11908;50.806;4.424;2023-04-03T15:01:40;3.03;;;1.38;;
23470;SDS011;11908;50.806;4.424;2023-04-03T15:04:13;3.13;;;1.63;;
23470;SDS011;11908;50.806;4.424;2023-04-03T15:06:44;4.32;;;1.40;;
23470;SDS011;11908;50.806;4.424;2023-04-03T15:09:21;3.08;;;1.50;;
23470;SDS011;11908;50.806;4.424;2023-04-03T15:11:50;2.88;;;1.30;;
23470;SDS011;11908;50.806;4.424;2023-04-03T15:14:17;3.13;;;1.65;;
23470;SDS011;11908;50.806;4.424;2023-04-03T15:16:43;3.92;;;1.90;;
23470;SDS011;11908;50.806;4.424;2023-04-03T15:19:09;7.43;;;1.92;;
23470;SDS011;11908;50.806;4.424;2023-04-03T15:21:35;4.07;;;1.70;;
23470;SDS011;11908;50.806;4.424;2023-04-03T15:24:01;3.90;;;1.83;;
23470;SDS011;11908;50.806;4.424;2023-04-03T15:26:27;6.53;;;2.25;;
23470;SDS011;11908;50.806;4.424;2023-04-03T15:28:53;4.40;;;1.50;;
23470;SDS011;11908;50.806;4.424;2023-04-03T15:31:19;3.97;;;1.63;;
23470;SDS011;11908;50.806;4.424;2023-04-03T15:33:45;4.22;;;1.95;;
23470;SDS011;11908;50.806;4.424;2023-04-03T15:36:10;4.57;;;1.67;;
23470;SDS011;11908;50.806;4.424;2023-04-03T15:38:36;4.30;;;1.88;;
23470;SDS011;11908;50.806;4.424;2023-04-03T15:41:03;2.40;;;1.67;;
23470;SDS011;11908;50.806;4.424;2023-04-03T15:43:29;3.53;;;1.73;;
23470;SDS011;11908;50.806;4.424;2023-04-03T15:45:58;3.85;;;1.80;;
23470;SDS011;11908;50.806;4.424;2023-04-03T15:48:25;3.72;;;1.70;;
23470;SDS011;11908;50.806;4.424;2023-04-03T15:50:52;3.55;;;1.92;;
23470;SDS011;11908;50.806;4.424;2023-04-03T15:53:18;3.42;;;2.00;;
23470;SDS011;11908;50.806;4.424;2023-04-03T15:55:44;4.43;;;1.83;;
23470;SDS011;11908;50.806;4.424;2023-04-03T15:58:09;4.80;;;2.25;;
23470;SDS011;11908;50.806;4.424;2023-04-03T16:00:35;4.72;;;2.00;;
23470;SDS011;11908;50.806;4.424;2023-04-03T16:03:07;5.20;;;1.98;;
23470;SDS011;11908;50.806;4.424;2023-04-03T16:05:36;5.40;;;2.28;;
23470;SDS011;11908;50.806;4.424;2023-04-03T16:08:03;4.97;;;2.30;;
23470;SDS011;11908;50.806;4.424;2023-04-03T16:10:30;3.60;;;1.80;;
23470;SDS011;11908;50.806;4.424;2023-04-03T16:12:56;3.17;;;1.85;;
23470;SDS011;11908;50.806;4.424;2023-04-03T16:15:22;6.68;;;2.20;;
23470;SDS011;11908;50.806;4.424;2023-04-03T16:17:49;4.00;;;1.60;;
23470;SDS011;11908;50.806;4.424;2023-04-03T16:20:15;5.82;;;2.30;;
23470;SDS011;11908;50.806;4.424;2023-04-03T16:22:41;4.85;;;2.08;;
23470;SDS011;11908;50.806;4.424;2023-04-03T16:25:08;3.38;;;1.98;;
23470;SDS011;11908;50.806;4.424;2023-04-03T16:27:34;2.92;;;1.85;;
23470;SDS011;11908;50.806;4.424;2023-04-03T16:30:00;5.28;;;2.05;;
23470;SDS011;11908;50.806;4.424;2023-04-03T16:32:26;5.63;;;2.10;;
23470;SDS011;11908;50.806;4.424;2023-04-03T16:34:54;8.18;;;2.65;;
23470;SDS011;11908;50.806;4.424;2023-04-03T16:37:20;5.10;;;2.55;;
23470;SDS011;11908;50.806;4.424;2023-04-03T16:39:46;5.88;;;2.13;;
23470;SDS011;11908;50.806;4.424;2023-04-03T16:42:12;6.05;;;2.22;;
23470;SDS011;11908;50.806;4.424;2023-04-03T16:44:38;3.72;;;2.08;;
23470;SDS011;11908;50.806;4.424;2023-04-03T16:47:04;9.27;;;2.08;;
23470;SDS011;11908;50.806;4.424;2023-04-03T16:49:30;6.53;;;2.05;;
23470;SDS011;11908;50.806;4.424;2023-04-03T16:52:02;6.88;;;2.10;;
23470;SDS011;11908;50.806;4.424;2023-04-03T16:54:29;8.07;;;2.90;;
23470;SDS011;11908;50.806;4.424;2023-04-03T16:56:56;6.95;;;2.40;;
23470;SDS011;11908;50.806;4.424;2023-04-03T16:59:22;5.55;;;2.40;;
23470;SDS011;11908;50.806;4.424;2023-04-03T17:01:48;6.43;;;2.50;;